createdAt,value
2022-09-22T00:01:03.876Z,5.27
2022-09-22T00:03:05.970Z,4.97
2022-09-22T00:05:08.303Z,5.70
2022-09-22T00:07:10.290Z,5.10
2022-09-22T00:09:13.961Z,5.70
2022-09-22T00:11:20.234Z,5.23
2022-09-22T00:13:22.249Z,5.20
2022-09-22T00:15:24.281Z,5.17
2022-09-22T00:17:26.208Z,5.47
2022-09-22T00:19:33.439Z,5.20
2022-09-22T00:21:36.050Z,5.23
2022-09-22T00:23:38.689Z,4.83
2022-09-22T00:25:41.156Z,5.60
2022-09-22T00:27:43.481Z,5.30
2022-09-22T00:29:45.536Z,5.27
2022-09-22T00:31:47.492Z,5.00
2022-09-22T00:33:50.407Z,5.37
2022-09-22T00:36:01.971Z,5.07
2022-09-22T00:38:07.861Z,5.10
2022-09-22T00:40:10.335Z,5.60
2022-09-22T00:42:12.810Z,5.47
2022-09-22T00:44:27.259Z,4.73
2022-09-22T00:46:29.275Z,5.77
2022-09-22T00:48:33.355Z,5.63
2022-09-22T00:50:35.538Z,5.50
2022-09-22T00:52:50.500Z,5.83
2022-09-22T00:54:55.278Z,5.07
2022-09-22T00:57:05.465Z,5.10
2022-09-22T00:59:11.714Z,5.30
2022-09-22T01:01:15.245Z,4.70
2022-09-22T01:03:27.600Z,5.17
2022-09-22T01:05:33.902Z,5.07
2022-09-22T01:07:36.521Z,4.83
2022-09-22T01:09:38.747Z,4.83
2022-09-22T01:11:41.642Z,5.00
2022-09-22T01:13:55.716Z,5.30
2022-09-22T01:16:32.197Z,5.33
2022-09-22T01:18:37.355Z,4.80
2022-09-22T01:21:02.485Z,5.40
2022-09-22T01:23:17.272Z,4.57
2022-09-22T01:25:45.004Z,5.33
2022-09-22T01:28:24.082Z,4.80
2022-09-22T01:30:36.670Z,5.90
2022-09-22T01:32:41.533Z,5.63
2022-09-22T01:34:57.328Z,5.67
2022-09-22T01:37:21.002Z,4.87
2022-09-22T01:39:29.731Z,5.70
2022-09-22T01:41:37.372Z,5.50
2022-09-22T01:43:48.217Z,5.53
2022-09-22T01:45:51.058Z,5.10
2022-09-22T01:48:13.545Z,5.50
2022-09-22T01:50:29.202Z,5.13
2022-09-22T01:52:32.792Z,4.80
2022-09-22T01:54:56.081Z,5.73
2022-09-22T01:57:03.845Z,4.90
2022-09-22T01:59:07.690Z,5.63
2022-09-22T02:01:14.718Z,5.47
2022-09-22T02:03:35.019Z,5.70
2022-09-22T02:05:42.533Z,6.03
2022-09-22T02:07:49.459Z,5.77
2022-09-22T02:09:51.694Z,5.67
2022-09-22T02:11:53.685Z,5.60
2022-09-22T02:13:55.807Z,4.00
2022-09-22T02:16:00.608Z,5.03
2022-09-22T02:18:07.687Z,5.13
2022-09-22T02:20:09.948Z,4.70
2022-09-22T02:22:12.644Z,4.90
2022-09-22T02:24:35.989Z,4.77
2022-09-22T02:26:37.972Z,5.13
2022-09-22T02:28:41.730Z,4.73
2022-09-22T02:30:59.113Z,5.63
2022-09-22T02:33:09.765Z,5.30
2022-09-22T02:35:12.657Z,4.73
2022-09-22T02:37:41.018Z,6.27
2022-09-22T02:40:07.692Z,5.00
2022-09-22T02:42:19.283Z,4.53
2022-09-22T02:44:30.213Z,4.90
2022-09-22T02:46:39.148Z,5.20
2022-09-22T02:48:47.292Z,5.43
2022-09-22T02:50:49.295Z,4.90
2022-09-22T02:52:52.812Z,4.87
2022-09-22T02:54:54.886Z,5.00
2022-09-22T02:56:56.992Z,4.73
2022-09-22T02:58:59.092Z,5.47
2022-09-22T03:01:01.051Z,5.50
2022-09-22T03:03:04.010Z,5.20
2022-09-22T03:05:06.741Z,4.57
2022-09-22T03:07:08.803Z,5.43
2022-09-22T03:09:10.806Z,5.67
2022-09-22T03:11:12.719Z,5.80
2022-09-22T03:13:17.174Z,5.23
2022-09-22T03:15:22.684Z,6.70
2022-09-22T03:17:27.092Z,5.20
2022-09-22T03:19:29.117Z,6.47
2022-09-22T03:21:31.105Z,5.93
2022-09-22T03:23:33.040Z,5.97
2022-09-22T03:25:35.116Z,5.33
2022-09-22T03:27:37.581Z,5.00
2022-09-22T03:29:39.594Z,5.53
2022-09-22T03:31:41.591Z,6.30
2022-09-22T03:33:43.724Z,5.23
2022-09-22T03:35:45.972Z,6.07
2022-09-22T03:37:47.928Z,5.20
2022-09-22T03:39:49.940Z,5.33
2022-09-22T03:41:52.018Z,6.03
2022-09-22T03:43:54.237Z,5.60
2022-09-22T03:46:00.406Z,5.60
2022-09-22T03:48:02.457Z,5.67
2022-09-22T03:50:04.673Z,5.50
2022-09-22T03:52:06.646Z,6.60
2022-09-22T03:54:08.612Z,5.00
2022-09-22T03:56:15.119Z,5.53
2022-09-22T03:58:19.892Z,6.27
2022-09-22T04:00:21.909Z,5.53
2022-09-22T04:02:23.957Z,6.10
2022-09-22T04:04:26.018Z,5.27
2022-09-22T04:06:28.009Z,5.90
2022-09-22T04:08:30.056Z,5.30
2022-09-22T04:10:32.140Z,5.47
2022-09-22T04:12:34.092Z,5.40
2022-09-22T04:14:36.604Z,5.97
2022-09-22T04:16:42.601Z,5.67
2022-09-22T04:18:44.592Z,5.80
2022-09-22T04:20:46.593Z,5.10
2022-09-22T04:22:48.557Z,5.30
2022-09-22T04:24:50.569Z,5.77
2022-09-22T04:27:18.086Z,6.63
2022-09-22T04:29:14.662Z,5.70
2022-09-22T04:31:16.866Z,6.00
2022-09-22T04:33:18.950Z,5.40
2022-09-22T04:35:21.016Z,5.70
2022-09-22T04:37:22.937Z,6.37
2022-09-22T04:39:24.940Z,6.47
2022-09-22T04:41:26.841Z,7.20
2022-09-22T04:43:28.988Z,6.50
2022-09-22T04:45:31.062Z,7.10
2022-09-22T04:47:33.533Z,6.90
2022-09-22T04:49:35.530Z,7.03
2022-09-22T04:51:37.601Z,6.87
2022-09-22T04:53:39.752Z,6.80
2022-09-22T04:55:41.794Z,7.10
2022-09-22T04:57:54.557Z,7.30
2022-09-22T04:59:56.813Z,6.93
2022-09-22T05:01:59.324Z,7.67
2022-09-22T05:04:01.559Z,7.20
2022-09-22T05:06:05.380Z,7.60
2022-09-22T05:08:07.759Z,7.40
2022-09-22T05:10:11.258Z,7.33
2022-09-22T05:12:13.175Z,6.90
2022-09-22T05:14:15.953Z,7.03
2022-09-22T05:16:18.467Z,6.23
2022-09-22T05:18:21.176Z,7.00
2022-09-22T05:20:23.169Z,6.80
2022-09-22T05:22:25.099Z,6.43
2022-09-22T05:24:27.208Z,7.23
2022-09-22T05:26:30.922Z,7.00
2022-09-22T05:28:33.112Z,8.03
2022-09-22T05:30:35.224Z,6.50
2022-09-22T05:32:37.173Z,7.37
2022-09-22T05:34:39.185Z,7.40
2022-09-22T05:36:41.232Z,7.37
2022-09-22T05:38:43.429Z,7.70
2022-09-22T05:40:47.336Z,7.33
2022-09-22T05:42:51.577Z,7.70
2022-09-22T05:44:53.658Z,7.97
2022-09-22T05:46:55.528Z,7.57
2022-09-22T05:48:57.509Z,7.50
2022-09-22T05:50:59.543Z,6.80
2022-09-22T05:53:06.634Z,7.20
2022-09-22T05:55:09.133Z,7.33
2022-09-22T05:57:11.035Z,6.70
2022-09-22T05:59:13.036Z,7.80
2022-09-22T06:01:15.102Z,7.67
2022-09-22T06:03:17.743Z,8.20
2022-09-22T06:05:19.864Z,8.93
2022-09-22T06:07:22.542Z,8.50
2022-09-22T06:09:24.673Z,8.30
2022-09-22T06:11:26.642Z,9.20
2022-09-22T06:13:28.607Z,8.93
2022-09-22T06:15:33.802Z,8.60
2022-09-22T06:17:35.849Z,7.73
2022-09-22T06:19:41.582Z,8.93
2022-09-22T06:21:43.671Z,7.40
2022-09-22T06:23:45.558Z,7.50
2022-09-22T06:25:47.684Z,9.50
2022-09-22T06:28:00.100Z,9.10
2022-09-22T06:30:02.083Z,10.53
2022-09-22T06:32:07.934Z,8.03
2022-09-22T06:34:11.591Z,8.80
2022-09-22T06:36:13.714Z,7.40
2022-09-22T06:38:16.048Z,7.60
2022-09-22T06:40:18.034Z,7.60
2022-09-22T06:42:20.049Z,7.87
2022-09-22T06:44:22.104Z,8.70
2022-09-22T06:46:26.266Z,7.90
2022-09-22T06:48:28.314Z,8.03
2022-09-22T06:50:33.814Z,6.37
2022-09-22T06:52:38.401Z,5.90
2022-09-22T06:54:42.251Z,5.30
2022-09-22T06:56:44.270Z,5.13
2022-09-22T06:59:08.352Z,5.87
2022-09-22T07:01:10.002Z,5.83
2022-09-22T07:03:20.761Z,5.40
2022-09-22T07:05:22.724Z,5.00
2022-09-22T07:07:28.905Z,6.87
2022-09-22T07:09:31.738Z,6.53
2022-09-22T07:11:38.868Z,6.00
2022-09-22T07:13:43.026Z,6.00
2022-09-22T07:15:44.993Z,5.80
2022-09-22T07:17:51.687Z,5.50
2022-09-22T07:19:56.284Z,6.07
2022-09-22T07:21:58.892Z,5.50
2022-09-22T07:24:00.897Z,5.63
2022-09-22T07:26:06.846Z,5.30
2022-09-22T07:28:13.665Z,5.50
2022-09-22T07:30:15.584Z,4.77
2022-09-22T07:32:17.677Z,5.93
2022-09-22T07:34:19.664Z,5.13
2022-09-22T07:36:23.761Z,6.10
2022-09-22T07:38:36.641Z,5.90
2022-09-22T07:40:38.605Z,5.50
2022-09-22T07:42:40.618Z,5.50
2022-09-22T07:45:01.645Z,5.60
2022-09-22T07:47:04.780Z,5.27
2022-09-22T07:49:07.170Z,5.00
2022-09-22T07:51:20.508Z,4.83
2022-09-22T07:53:22.601Z,3.57
2022-09-22T07:55:25.032Z,3.67
2022-09-22T07:57:30.303Z,4.50
2022-09-22T07:59:33.797Z,3.53
2022-09-22T08:01:36.865Z,3.40
2022-09-22T08:03:39.890Z,3.67
2022-09-22T08:05:41.966Z,3.60
2022-09-22T08:07:44.072Z,3.80
2022-09-22T08:09:46.201Z,3.67
2022-09-22T08:11:53.176Z,3.10
2022-09-22T08:13:57.347Z,3.57
2022-09-22T08:15:59.533Z,3.60
2022-09-22T08:18:04.115Z,3.23
2022-09-22T08:20:07.781Z,3.60
2022-09-22T08:22:10.842Z,3.57
2022-09-22T08:24:14.514Z,3.17
2022-09-22T08:26:16.466Z,3.70
2022-09-22T08:28:18.393Z,3.10
2022-09-22T08:30:20.392Z,3.67
2022-09-22T08:32:22.791Z,3.00
2022-09-22T08:34:24.882Z,2.83
2022-09-22T08:36:30.922Z,2.90
2022-09-22T08:38:36.081Z,2.83
2022-09-22T08:40:39.207Z,2.83
2022-09-22T08:42:41.892Z,3.50
2022-09-22T08:45:39.572Z,1.80
2022-09-22T08:48:19.035Z,2.40
2022-09-22T08:50:50.139Z,2.67
2022-09-22T08:52:55.769Z,2.40
2022-09-22T08:55:01.112Z,2.00
2022-09-22T08:57:14.079Z,2.07
2022-09-22T08:59:23.022Z,2.30
2022-09-22T09:01:40.721Z,1.90
2022-09-22T09:04:06.871Z,1.80
2022-09-22T09:06:12.829Z,2.13
2022-09-22T09:08:23.859Z,2.00
2022-09-22T09:10:45.244Z,1.50
2022-09-22T09:13:08.548Z,1.70
2022-09-22T09:15:13.411Z,1.77
2022-09-22T09:17:21.909Z,1.53
2022-09-22T09:19:30.039Z,1.70
2022-09-22T09:21:33.259Z,1.27
2022-09-22T09:26:08.661Z,1.43
2022-09-22T09:28:18.706Z,1.67
2022-09-22T09:30:21.782Z,1.50
2022-09-22T09:32:36.655Z,1.13
2022-09-22T09:34:39.008Z,1.30
2022-09-22T09:36:42.920Z,1.30
2022-09-22T09:38:53.889Z,1.40
2022-09-22T09:41:02.710Z,1.23
2022-09-22T09:43:05.774Z,1.23
2022-09-22T09:45:13.527Z,1.40
2022-09-22T09:47:59.080Z,1.30
2022-09-22T09:50:01.353Z,1.30
2022-09-22T09:52:06.919Z,1.50
2022-09-22T09:54:16.748Z,1.20
2022-09-22T09:56:27.204Z,1.10
2022-09-22T09:58:47.721Z,1.30
2022-09-22T10:00:59.991Z,0.97
2022-09-22T10:03:13.095Z,1.30
2022-09-22T10:05:18.050Z,1.20
2022-09-22T10:07:27.065Z,1.10
2022-09-22T10:09:29.478Z,1.03
2022-09-22T10:11:32.096Z,1.20
2022-09-22T10:13:41.976Z,1.20
2022-09-22T10:16:00.967Z,0.90
2022-09-22T10:18:04.203Z,0.90
2022-09-22T10:20:27.915Z,0.80
2022-09-22T10:22:29.897Z,1.40
2022-09-22T10:24:33.194Z,0.80
2022-09-22T10:26:35.120Z,1.10
2022-09-22T10:28:37.333Z,1.00
2022-09-22T10:30:39.712Z,1.10
2022-09-22T10:32:42.527Z,0.97
2022-09-22T10:34:48.674Z,0.90
2022-09-22T10:36:51.278Z,0.90
2022-09-22T10:38:58.895Z,1.20
2022-09-22T10:41:18.148Z,1.20
2022-09-22T10:43:30.201Z,1.30
2022-09-22T10:45:46.250Z,1.10
2022-09-22T10:47:57.676Z,1.03
2022-09-22T10:50:21.550Z,0.93
2022-09-22T10:52:45.296Z,0.90
2022-09-22T10:55:04.436Z,0.83
2022-09-22T10:57:18.309Z,1.00
2022-09-22T11:00:02.779Z,1.40
2022-09-22T11:02:25.182Z,0.93
2022-09-22T11:04:45.217Z,1.23
2022-09-22T11:07:44.596Z,1.20
2022-09-22T11:10:22.249Z,1.00
2022-09-22T11:12:44.614Z,1.40
2022-09-22T11:15:14.397Z,1.10
2022-09-22T11:17:45.497Z,1.10
2022-09-22T11:20:26.277Z,1.23
2022-09-22T11:22:51.227Z,1.00
2022-09-22T11:24:59.831Z,1.10
2022-09-22T11:27:02.287Z,1.70
2022-09-22T11:29:07.412Z,1.53
2022-09-22T11:31:21.795Z,1.30
2022-09-22T11:33:48.521Z,2.23
2022-09-22T11:36:03.996Z,1.77
2022-09-22T11:38:05.928Z,1.20
2022-09-22T11:40:35.698Z,1.00
2022-09-22T11:42:47.711Z,1.20
2022-09-22T11:45:02.495Z,1.03
2022-09-22T11:47:24.247Z,0.90
2022-09-22T11:49:48.084Z,0.93
2022-09-22T11:52:03.136Z,5.63
2022-09-22T11:54:17.451Z,0.90
2022-09-22T11:56:33.377Z,0.90
2022-09-22T11:58:40.025Z,0.93
2022-09-22T12:00:50.660Z,1.10
2022-09-22T12:03:02.059Z,1.10
2022-09-22T12:05:08.816Z,2.13
2022-09-22T12:07:31.513Z,1.80
2022-09-22T12:09:43.845Z,1.30
2022-09-22T12:11:46.217Z,2.47
2022-09-22T12:13:53.213Z,1.50
2022-09-22T12:16:01.283Z,4.87
2022-09-22T12:18:13.894Z,7.23
2022-09-22T12:20:34.110Z,48.50
2022-09-22T12:22:54.717Z,6.77
2022-09-22T12:24:56.747Z,6.03
2022-09-22T12:26:58.859Z,3.40
2022-09-22T12:29:02.324Z,1.30
2022-09-22T12:31:15.346Z,1.60
2022-09-22T12:33:17.446Z,1.70
2022-09-22T12:35:30.273Z,1.30
2022-09-22T12:37:39.179Z,1.13
2022-09-22T12:39:46.941Z,1.30
2022-09-22T12:42:03.979Z,1.00
2022-09-22T12:44:08.501Z,1.30
2022-09-22T12:46:24.523Z,1.23
2022-09-22T12:48:33.068Z,1.10
2022-09-22T12:50:39.239Z,1.20
2022-09-22T12:52:41.187Z,1.20
2022-09-22T12:54:43.194Z,1.00
2022-09-22T12:56:46.611Z,1.27
2022-09-22T12:58:48.553Z,1.17
2022-09-22T13:01:32.520Z,1.10
2022-09-22T13:03:37.621Z,0.80
2022-09-22T13:05:46.411Z,1.13
2022-09-22T13:07:48.901Z,3.00
2022-09-22T13:10:22.800Z,2.37
2022-09-22T13:12:27.067Z,1.00
2022-09-22T13:15:06.207Z,1.33
2022-09-22T13:17:41.455Z,1.10
2022-09-22T13:19:55.969Z,1.40
2022-09-22T13:22:14.809Z,1.40
2022-09-22T13:24:19.573Z,1.10
2022-09-22T13:26:23.087Z,1.10
2022-09-22T13:28:28.334Z,1.20
2022-09-22T13:30:30.981Z,1.07
2022-09-22T13:32:33.065Z,1.40
2022-09-22T13:34:36.272Z,1.00
2022-09-22T13:36:38.211Z,1.10
2022-09-22T13:38:45.700Z,1.30
2022-09-22T13:40:51.224Z,1.00
2022-09-22T13:42:55.507Z,1.20
2022-09-22T13:45:20.287Z,0.93
2022-09-22T13:47:24.412Z,0.90
2022-09-22T13:49:42.374Z,1.00
2022-09-22T13:51:50.315Z,2.40
2022-09-22T13:53:54.457Z,2.97
2022-09-22T13:55:57.191Z,2.77
2022-09-22T13:57:59.777Z,2.40
2022-09-22T14:00:02.090Z,1.40
2022-09-22T14:02:10.415Z,1.20
2022-09-22T14:04:27.397Z,1.07
2022-09-22T14:06:31.474Z,1.00
2022-09-22T14:08:33.557Z,1.20
2022-09-22T14:10:35.692Z,1.20
2022-09-22T14:12:39.476Z,1.10
2022-09-22T14:14:41.784Z,1.00
2022-09-22T14:17:26.285Z,1.30
2022-09-22T14:20:01.336Z,1.20
2022-09-22T14:22:05.270Z,1.10
2022-09-22T14:24:07.274Z,0.93
2022-09-22T14:26:39.115Z,0.90
2022-09-22T14:28:41.349Z,1.20
2022-09-22T14:30:43.952Z,0.90
2022-09-22T14:32:51.014Z,1.00
2022-09-22T14:34:58.495Z,1.00
2022-09-22T14:37:10.765Z,1.00
2022-09-22T14:39:19.053Z,0.97
2022-09-22T14:41:24.284Z,1.00
2022-09-22T14:43:42.321Z,1.10
2022-09-22T14:46:03.929Z,1.27
2022-09-22T14:48:19.119Z,1.30
2022-09-22T14:50:27.050Z,1.30
2022-09-22T14:52:30.852Z,1.10
2022-09-22T14:54:34.881Z,1.80
2022-09-22T14:56:37.167Z,1.57
2022-09-22T14:58:41.253Z,1.70
2022-09-22T15:01:14.700Z,1.40
2022-09-22T15:03:27.227Z,1.30
2022-09-22T15:05:31.010Z,1.40
2022-09-22T15:07:46.526Z,5.50
2022-09-22T15:09:51.737Z,1.40
2022-09-22T15:12:00.506Z,1.70
2022-09-22T15:14:42.481Z,1.27
2022-09-22T15:16:44.488Z,1.60
2022-09-22T15:18:46.873Z,1.33
2022-09-22T15:20:53.640Z,1.50
2022-09-22T15:22:56.580Z,1.70
2022-09-22T15:24:58.638Z,1.27
2022-09-22T15:27:05.914Z,1.50
2022-09-22T15:29:12.181Z,1.33
2022-09-22T15:31:17.032Z,1.30
2022-09-22T15:33:20.245Z,1.77
2022-09-22T15:35:22.232Z,2.03
2022-09-22T15:37:24.218Z,2.10
2022-09-22T15:39:26.209Z,2.43
2022-09-22T15:41:28.322Z,1.27
2022-09-22T15:43:33.753Z,1.53
2022-09-22T15:45:35.971Z,1.27
2022-09-22T15:47:39.216Z,1.23
2022-09-22T15:49:42.676Z,1.47
2022-09-22T15:51:44.861Z,1.10
2022-09-22T15:53:46.771Z,1.00
2022-09-22T15:55:52.444Z,1.50
2022-09-22T15:57:56.715Z,1.20
2022-09-22T15:59:58.705Z,1.10
2022-09-22T16:02:01.306Z,1.17
2022-09-22T16:04:03.286Z,1.20
2022-09-22T16:06:08.411Z,1.30
2022-09-22T16:08:15.075Z,1.20
2022-09-22T16:10:22.713Z,1.67
2022-09-22T16:12:25.514Z,1.20
2022-09-22T16:14:27.508Z,1.40
2022-09-22T16:16:33.914Z,1.30
2022-09-22T16:18:39.276Z,1.73
2022-09-22T16:20:42.364Z,1.30
2022-09-22T16:22:45.470Z,2.00
2022-09-22T16:24:47.441Z,1.20
2022-09-22T16:26:51.361Z,1.63
2022-09-22T16:28:54.258Z,1.40
2022-09-22T16:30:56.297Z,1.40
2022-09-22T16:32:58.358Z,1.30
2022-09-22T16:35:00.292Z,1.30
2022-09-22T16:37:03.482Z,1.50
2022-09-22T16:39:05.808Z,1.80
2022-09-22T16:41:24.064Z,1.50
2022-09-22T16:43:26.146Z,1.33
2022-09-22T16:45:46.771Z,1.30
2022-09-22T16:47:48.679Z,1.20
2022-09-22T16:49:51.690Z,1.40
2022-09-22T16:51:55.074Z,1.80
2022-09-22T16:53:57.472Z,1.80
2022-09-22T16:55:59.605Z,1.60
2022-09-22T16:58:02.911Z,1.90
2022-09-22T17:00:05.177Z,1.93
2022-09-22T17:02:07.201Z,1.73
2022-09-22T17:04:10.426Z,2.53
2022-09-22T17:06:13.925Z,2.80
2022-09-22T17:08:17.409Z,2.40
2022-09-22T17:10:20.119Z,3.10
2022-09-22T17:12:23.100Z,2.63
2022-09-22T17:14:25.610Z,3.00
2022-09-22T17:16:32.634Z,3.93
2022-09-22T17:18:39.398Z,3.90
2022-09-22T17:20:41.425Z,4.27
2022-09-22T17:22:44.408Z,4.97
2022-09-22T17:24:46.373Z,3.97
2022-09-22T17:26:50.627Z,3.70
2022-09-22T17:28:53.364Z,3.90
2022-09-22T17:30:59.058Z,4.13
2022-09-22T17:33:01.427Z,4.20
2022-09-22T17:35:03.972Z,4.53
2022-09-22T17:37:06.103Z,4.23
2022-09-22T17:39:10.494Z,4.03
2022-09-22T17:41:13.435Z,4.60
2022-09-22T17:43:15.891Z,4.70
2022-09-22T17:45:18.005Z,4.40
2022-09-22T17:47:38.355Z,5.00
2022-09-22T17:49:59.266Z,4.63
2022-09-22T17:52:19.942Z,5.37
2022-09-22T17:54:48.719Z,4.53
2022-09-22T17:56:50.690Z,4.17
2022-09-22T17:58:52.663Z,4.83
2022-09-22T18:00:55.328Z,4.07
2022-09-22T18:02:58.399Z,4.97
2022-09-22T18:05:00.467Z,4.30
2022-09-22T18:07:05.997Z,3.90
2022-09-22T18:09:07.907Z,4.37
2022-09-22T18:11:11.115Z,4.77
2022-09-22T18:13:13.104Z,4.57
2022-09-22T18:15:17.284Z,3.90
2022-09-22T18:17:25.436Z,3.97
2022-09-22T18:19:32.440Z,3.67
2022-09-22T18:21:35.404Z,3.97
2022-09-22T18:23:38.300Z,5.50
2022-09-22T18:25:41.352Z,4.50
2022-09-22T18:27:44.231Z,4.80
2022-09-22T18:29:49.975Z,5.27
2022-09-22T18:31:54.937Z,5.37
2022-09-22T18:33:56.941Z,5.70
2022-09-22T18:35:59.209Z,5.53
2022-09-22T18:38:01.282Z,5.90
2022-09-22T18:40:04.035Z,5.10
2022-09-22T18:42:09.389Z,5.90
2022-09-22T18:44:12.979Z,6.93
2022-09-22T18:46:19.794Z,8.23
2022-09-22T18:48:22.107Z,9.03
2022-09-22T18:50:24.111Z,7.80
2022-09-22T18:52:26.125Z,7.17
2022-09-22T18:54:31.657Z,7.50
2022-09-22T18:56:35.621Z,6.73
2022-09-22T18:58:37.900Z,6.17
2022-09-22T19:00:40.568Z,6.03
2022-09-22T19:02:42.673Z,6.00
2022-09-22T19:04:44.673Z,5.57
2022-09-22T19:07:07.231Z,5.37
2022-09-22T19:09:09.227Z,4.20
2022-09-22T19:11:11.823Z,3.70
2022-09-22T19:13:17.025Z,3.20
2022-09-22T19:15:19.584Z,3.37
2022-09-22T19:17:24.379Z,3.47
2022-09-22T19:19:26.315Z,3.33
2022-09-22T19:21:31.390Z,2.90
2022-09-22T19:23:33.920Z,2.87
2022-09-22T19:25:35.919Z,3.10
2022-09-22T19:27:39.626Z,3.87
2022-09-22T19:29:41.740Z,3.63
2022-09-22T19:31:43.722Z,4.30
2022-09-22T19:33:45.705Z,4.13
2022-09-22T19:35:47.652Z,4.70
2022-09-22T19:37:51.778Z,3.90
2022-09-22T19:39:54.102Z,3.60
2022-09-22T19:41:56.820Z,2.67
2022-09-22T19:43:58.970Z,2.90
2022-09-22T19:46:01.019Z,2.57
2022-09-22T19:48:03.241Z,3.03
2022-09-22T19:50:07.862Z,3.40
2022-09-22T19:52:10.437Z,3.27
2022-09-22T19:54:12.566Z,2.60
2022-09-22T19:56:14.730Z,3.30
2022-09-22T19:58:16.784Z,2.67
2022-09-22T20:00:25.698Z,2.60
2022-09-22T20:02:27.762Z,2.60
2022-09-22T20:04:33.967Z,2.80
2022-09-22T20:06:35.978Z,2.80
2022-09-22T20:08:38.638Z,3.30
2022-09-22T20:10:40.666Z,3.10
2022-09-22T20:12:43.057Z,2.90
2022-09-22T20:14:45.395Z,3.10
2022-09-22T20:16:49.050Z,3.40
2022-09-22T20:18:51.111Z,3.30
2022-09-22T20:20:54.349Z,3.60
2022-09-22T20:23:00.497Z,3.73
2022-09-22T20:25:05.112Z,3.90
2022-09-22T20:27:07.727Z,3.80
2022-09-22T20:29:10.655Z,3.50
2022-09-22T20:31:12.684Z,4.00
2022-09-22T20:33:21.873Z,3.70
2022-09-22T20:35:24.210Z,4.10
2022-09-22T20:37:26.421Z,3.30
2022-09-22T20:39:28.381Z,3.70
2022-09-22T20:41:30.376Z,3.67
2022-09-22T20:43:32.350Z,3.33
2022-09-22T20:45:34.505Z,3.73
2022-09-22T20:47:36.534Z,3.30
2022-09-22T20:49:43.759Z,3.70
2022-09-22T20:51:47.483Z,3.40
2022-09-22T20:53:49.552Z,4.00
2022-09-22T20:56:17.992Z,4.43
2022-09-22T20:58:20.030Z,3.73
2022-09-22T21:00:22.251Z,4.70
2022-09-22T21:02:24.986Z,3.40
2022-09-22T21:04:28.125Z,3.20
2022-09-22T21:06:30.962Z,4.57
2022-09-22T21:08:51.682Z,3.80
2022-09-22T21:10:53.662Z,3.20
2022-09-22T21:12:56.114Z,3.77
2022-09-22T21:14:58.630Z,3.37
2022-09-22T21:17:06.229Z,3.33
2022-09-22T21:19:08.283Z,3.27
2022-09-22T21:21:10.358Z,3.60
2022-09-22T21:23:12.305Z,3.30
2022-09-22T21:25:14.363Z,3.70
2022-09-22T21:27:16.365Z,3.80
2022-09-22T21:29:18.279Z,3.30
2022-09-22T21:31:21.227Z,3.27
2022-09-22T21:33:23.620Z,3.17
2022-09-22T21:35:25.904Z,3.30
2022-09-22T21:37:28.187Z,2.70
2022-09-22T21:39:30.280Z,2.93
2022-09-22T21:41:33.144Z,3.27
2022-09-22T21:43:35.425Z,2.83
2022-09-22T21:45:37.482Z,2.87
2022-09-22T21:47:39.462Z,2.63
2022-09-22T21:49:41.445Z,3.60
2022-09-22T21:51:44.185Z,4.40
2022-09-22T21:53:48.412Z,5.13
2022-09-22T21:56:04.601Z,4.27
2022-09-22T21:58:07.040Z,4.20
2022-09-22T22:00:09.400Z,3.60
2022-09-22T22:02:14.060Z,3.50
2022-09-22T22:04:17.611Z,3.20
2022-09-22T22:06:24.523Z,4.23
2022-09-22T22:08:26.564Z,3.70
2022-09-22T22:10:28.729Z,3.50
2022-09-22T22:12:30.641Z,3.60
2022-09-22T22:14:33.481Z,3.70
2022-09-22T22:16:38.033Z,3.60
2022-09-22T22:18:41.370Z,3.90
2022-09-22T22:20:43.342Z,3.90
2022-09-22T22:22:45.322Z,3.70
2022-09-22T22:24:48.301Z,4.20
2022-09-22T22:26:58.278Z,3.83
2022-09-22T22:29:00.344Z,3.90
2022-09-22T22:31:07.448Z,4.00
2022-09-22T22:33:10.167Z,4.60
2022-09-22T22:35:12.416Z,4.33
2022-09-22T22:37:14.373Z,4.30
2022-09-22T22:39:16.524Z,4.40
2022-09-22T22:41:18.540Z,5.00
2022-09-22T22:43:23.776Z,4.37
2022-09-22T22:45:25.760Z,4.60
2022-09-22T22:47:27.739Z,3.90
2022-09-22T22:49:29.736Z,3.50
2022-09-22T22:51:31.922Z,3.70
2022-09-22T22:53:35.983Z,4.40
2022-09-22T22:55:39.310Z,3.83
2022-09-22T22:57:41.437Z,3.60
2022-09-22T22:59:43.377Z,3.60
2022-09-22T23:01:45.440Z,3.90
2022-09-22T23:03:53.859Z,3.30
2022-09-22T23:06:00.748Z,3.60
2022-09-22T23:08:02.801Z,3.53
2022-09-22T23:10:08.115Z,3.70
2022-09-22T23:12:10.611Z,3.80
2022-09-22T23:14:12.987Z,3.57
2022-09-22T23:16:17.149Z,3.47
2022-09-22T23:18:21.046Z,3.70
2022-09-22T23:20:23.065Z,4.67
2022-09-22T23:22:25.045Z,3.77
2022-09-22T23:24:26.989Z,3.37
2022-09-22T23:26:29.811Z,3.50
2022-09-22T23:28:33.603Z,3.30
2022-09-22T23:30:35.581Z,3.50
2022-09-22T23:32:37.586Z,4.00
2022-09-22T23:34:39.527Z,3.87
2022-09-22T23:36:41.492Z,2.97
2022-09-22T23:38:43.954Z,3.60
2022-09-22T23:40:46.128Z,3.90
2022-09-22T23:42:48.386Z,3.63
2022-09-22T23:44:50.340Z,3.43
2022-09-22T23:46:52.338Z,4.53
2022-09-22T23:48:55.578Z,3.60
2022-09-22T23:50:58.768Z,4.00
2022-09-22T23:53:00.813Z,2.97
2022-09-22T23:55:03.031Z,3.37
2022-09-22T23:57:05.436Z,3.93
2022-09-22T23:59:07.418Z,3.70
